createdAt,value
2023-02-15T00:00:29.803Z,48.63
2023-02-15T00:02:58.828Z,48.30
2023-02-15T00:05:30.365Z,50.90
2023-02-15T00:07:59.212Z,50.78
2023-02-15T00:10:27.708Z,49.63
2023-02-15T00:12:57.401Z,50.00
2023-02-15T00:15:38.513Z,46.15
2023-02-15T00:18:09.606Z,45.30
2023-02-15T00:20:58.816Z,46.05
2023-02-15T00:23:37.535Z,46.55
2023-02-15T00:26:11.131Z,47.75
2023-02-15T00:28:41.487Z,46.78
2023-02-15T00:31:15.244Z,47.33
2023-02-15T00:33:46.512Z,48.33
2023-02-15T00:36:40.545Z,46.15
2023-02-15T00:39:12.629Z,45.78
2023-02-15T00:41:44.481Z,46.15
2023-02-15T00:47:14.206Z,45.33
2023-02-15T00:49:48.320Z,46.47
2023-02-15T00:52:20.789Z,46.67
2023-02-15T00:54:59.937Z,43.58
2023-02-15T00:57:29.980Z,46.25
2023-02-15T00:59:59.140Z,49.20
2023-02-15T01:02:29.058Z,46.33
2023-02-15T01:04:58.856Z,46.00
2023-02-15T01:07:44.756Z,48.00
2023-02-15T01:10:27.372Z,45.55
2023-02-15T01:12:57.419Z,46.80
2023-02-15T01:15:26.930Z,45.40
2023-02-15T01:17:56.889Z,44.60
2023-02-15T01:20:36.647Z,47.63
2023-02-15T01:25:56.470Z,47.13
2023-02-15T01:28:46.311Z,52.40
2023-02-15T01:31:23.395Z,50.22
2023-02-15T01:33:54.068Z,48.20
2023-02-15T01:36:25.478Z,49.83
2023-02-15T01:38:57.752Z,49.88
2023-02-15T01:41:32.936Z,49.72
2023-02-15T01:46:43.362Z,45.55
2023-02-15T01:49:20.577Z,49.63
2023-02-15T01:51:54.067Z,49.38
2023-02-15T01:54:32.670Z,49.95
2023-02-15T01:57:16.312Z,50.50
2023-02-15T02:00:03.526Z,49.83
2023-02-15T02:02:47.443Z,49.92
2023-02-15T02:05:32.313Z,50.70
2023-02-15T02:08:04.786Z,52.40
2023-02-15T02:10:38.236Z,50.15
2023-02-15T02:13:10.074Z,50.95
2023-02-15T02:15:50.629Z,49.95
2023-02-15T02:18:51.987Z,50.03
2023-02-15T02:22:14.559Z,48.75
2023-02-15T02:25:41.153Z,47.63
2023-02-15T02:28:35.885Z,48.42
2023-02-15T02:31:52.104Z,47.45
2023-02-15T02:37:27.802Z,46.47
2023-02-15T02:40:05.312Z,50.33
2023-02-15T02:42:41.966Z,50.22
2023-02-15T02:45:29.827Z,48.22
2023-02-15T02:48:05.448Z,47.15
2023-02-15T02:50:36.516Z,48.00
2023-02-15T02:53:08.047Z,48.78
2023-02-15T02:55:55.305Z,47.65
2023-02-15T02:58:35.733Z,49.72
2023-02-15T03:01:22.418Z,47.63
2023-02-15T03:03:57.213Z,48.53
2023-02-15T03:06:37.796Z,46.72
2023-02-15T03:09:22.683Z,48.92
2023-02-15T03:11:52.708Z,49.38
2023-02-15T03:14:26.406Z,48.88
2023-02-15T03:17:05.264Z,48.15
2023-02-15T03:19:36.592Z,48.28
2023-02-15T03:22:13.177Z,48.03
2023-02-15T03:24:52.693Z,47.75
2023-02-15T03:27:29.811Z,46.95
2023-02-15T03:30:02.254Z,47.92
2023-02-15T03:32:37.508Z,48.70
2023-02-15T03:37:42.941Z,46.75
2023-02-15T03:40:38.142Z,50.40
2023-02-15T03:43:16.182Z,51.00
2023-02-15T03:45:57.218Z,49.85
2023-02-15T03:48:32.815Z,50.65
2023-02-15T03:51:33.427Z,50.78
2023-02-15T03:54:08.859Z,50.67
2023-02-15T03:59:25.821Z,45.58
2023-02-15T04:02:11.865Z,51.47
2023-02-15T04:04:46.342Z,49.85
2023-02-15T04:07:18.018Z,50.40
2023-02-15T04:10:06.454Z,51.70
2023-02-15T04:12:35.229Z,52.10
2023-02-15T04:15:21.995Z,55.65
2023-02-15T04:17:50.947Z,54.30
2023-02-15T04:33:38.896Z,53.05
2023-02-15T04:36:12.219Z,51.88
2023-02-15T04:38:42.108Z,53.25
2023-02-15T04:41:18.558Z,54.75
2023-02-15T04:43:53.496Z,53.80
2023-02-15T04:46:24.740Z,56.22
2023-02-15T04:48:54.282Z,54.60
2023-02-15T04:51:23.588Z,55.83
2023-02-15T04:53:54.989Z,56.38
2023-02-15T04:56:25.615Z,56.00
2023-02-15T04:58:58.624Z,55.63
2023-02-15T05:01:28.668Z,55.67
2023-02-15T05:03:58.997Z,55.35
2023-02-15T05:06:28.193Z,55.33
2023-02-15T05:09:07.485Z,55.42
2023-02-15T05:11:40.858Z,55.40
2023-02-15T05:14:14.378Z,54.88
2023-02-15T05:16:48.502Z,56.20
2023-02-15T05:19:32.451Z,55.85
2023-02-15T05:22:02.547Z,56.38
2023-02-15T05:24:49.082Z,57.90
2023-02-15T05:27:40.319Z,57.60
2023-02-15T05:30:24.014Z,57.10
2023-02-15T05:32:54.691Z,55.88
2023-02-15T05:35:40.306Z,56.33
2023-02-15T05:38:13.211Z,54.38
2023-02-15T05:43:39.548Z,53.13
2023-02-15T05:49:14.298Z,50.25
2023-02-15T05:51:44.438Z,53.90
2023-02-15T05:54:17.508Z,54.40
2023-02-15T05:56:59.706Z,51.80
2023-02-15T05:59:33.729Z,52.67
2023-02-15T06:02:20.008Z,53.47
2023-02-15T06:04:49.528Z,53.22
2023-02-15T06:07:25.358Z,53.55
2023-02-15T06:12:37.897Z,51.92
2023-02-15T06:18:15.516Z,51.45
2023-02-15T06:21:01.328Z,50.50
2023-02-15T06:29:09.037Z,50.15
2023-02-15T06:31:52.922Z,51.83
2023-02-15T06:37:33.126Z,51.22
2023-02-15T06:43:06.475Z,49.83
2023-02-15T06:45:43.271Z,51.35
2023-02-15T06:48:13.881Z,52.25
2023-02-15T06:51:12.780Z,52.53
2023-02-15T06:53:47.718Z,53.20
2023-02-15T06:56:25.081Z,51.67
2023-02-15T06:59:03.131Z,52.10
2023-02-15T07:04:31.741Z,53.13
2023-02-15T07:09:53.521Z,52.30
2023-02-15T08:23:54.129Z,60.65
2023-02-15T08:26:28.582Z,63.72
2023-02-15T08:28:58.356Z,62.80
2023-02-15T08:31:28.133Z,64.40
2023-02-15T08:34:02.698Z,64.13
2023-02-15T08:36:35.433Z,66.05
2023-02-15T08:39:09.557Z,65.93
2023-02-15T08:41:41.722Z,66.03
2023-02-15T08:44:12.655Z,67.78
2023-02-15T08:46:47.230Z,65.95
2023-02-15T08:49:21.194Z,67.32
2023-02-15T08:51:51.854Z,69.45
2023-02-15T08:54:24.128Z,65.05
2023-02-15T08:56:54.063Z,68.68
2023-02-15T08:59:28.256Z,66.82
2023-02-15T09:01:59.157Z,69.05
2023-02-15T09:04:28.808Z,66.68
2023-02-15T09:06:58.964Z,67.93
2023-02-15T09:09:29.806Z,65.53
2023-02-15T09:11:59.813Z,64.25
2023-02-15T09:14:30.862Z,60.38
2023-02-15T09:17:00.489Z,57.05
2023-02-15T09:19:33.796Z,52.55
2023-02-15T09:22:06.657Z,53.15
2023-02-15T09:24:40.473Z,48.75
2023-02-15T09:27:13.706Z,46.25
2023-02-15T09:29:43.612Z,45.00
2023-02-15T09:32:21.154Z,42.72
2023-02-15T09:34:54.209Z,39.63
2023-02-15T09:37:23.137Z,38.50
2023-02-15T09:39:53.447Z,35.70
2023-02-15T09:42:51.520Z,36.05
2023-02-15T09:45:35.455Z,33.38
2023-02-15T09:48:29.948Z,32.13
2023-02-15T09:51:23.783Z,32.53
2023-02-15T09:54:19.564Z,32.08
2023-02-15T09:57:03.297Z,32.42
2023-02-15T09:59:43.260Z,32.17
2023-02-15T10:02:30.638Z,31.92
2023-02-15T10:05:21.067Z,32.40
2023-02-15T10:08:26.390Z,32.08
2023-02-15T10:11:24.673Z,31.38
2023-02-15T10:14:15.298Z,28.85
2023-02-15T10:17:00.192Z,29.98
2023-02-15T10:19:43.566Z,30.25
2023-02-15T10:22:30.303Z,30.35
2023-02-15T10:25:39.172Z,30.17
2023-02-15T10:28:18.664Z,31.60
2023-02-15T10:30:52.759Z,30.05
2023-02-15T10:33:40.520Z,30.13
2023-02-15T10:36:29.142Z,29.60
2023-02-15T10:39:10.206Z,29.52
2023-02-15T10:41:50.397Z,30.92
2023-02-15T10:44:50.809Z,31.40
2023-02-15T10:47:51.531Z,31.45
2023-02-15T10:50:46.017Z,32.70
2023-02-15T10:53:45.805Z,31.60
2023-02-15T10:56:37.409Z,30.42
2023-02-15T10:59:29.256Z,30.42
2023-02-15T11:02:15.235Z,31.75
2023-02-15T11:05:23.266Z,30.42
2023-02-15T11:07:59.086Z,30.42
2023-02-15T11:10:38.261Z,30.05
2023-02-15T11:13:12.993Z,32.60
2023-02-15T11:15:48.149Z,32.35
2023-02-15T11:18:25.206Z,32.75
2023-02-15T11:21:01.244Z,31.25
2023-02-15T11:23:32.042Z,31.50
2023-02-15T11:26:04.922Z,31.33
2023-02-15T11:28:39.117Z,31.60
2023-02-15T11:31:21.326Z,32.08
2023-02-15T11:33:54.909Z,31.17
2023-02-15T11:36:31.322Z,30.65
2023-02-15T11:39:11.419Z,30.58
2023-02-15T11:41:52.822Z,30.13
2023-02-15T11:44:34.995Z,30.17
2023-02-15T11:47:05.270Z,29.70
2023-02-15T11:49:37.204Z,28.77
2023-02-15T11:52:13.274Z,28.25
2023-02-15T11:54:46.122Z,28.27
2023-02-15T11:57:23.251Z,27.00
2023-02-15T12:00:00.501Z,28.88
2023-02-15T12:02:31.901Z,28.15
2023-02-15T12:05:04.100Z,28.50
2023-02-15T12:07:41.227Z,28.42
2023-02-15T12:10:29.963Z,28.50
2023-02-15T12:13:16.956Z,28.95
2023-02-15T12:15:53.697Z,29.77
2023-02-15T12:18:43.011Z,28.30
2023-02-15T12:21:28.425Z,29.13
2023-02-15T12:24:14.518Z,29.38
2023-02-15T12:26:46.765Z,29.70
2023-02-15T12:32:24.058Z,30.30
2023-02-15T12:35:01.364Z,29.48
2023-02-15T12:37:39.334Z,31.17
2023-02-15T12:40:31.587Z,32.10
2023-02-15T12:43:10.253Z,32.05
2023-02-15T12:45:45.349Z,31.65
2023-02-15T12:48:23.352Z,32.35
2023-02-15T12:51:28.276Z,31.70
2023-02-15T12:54:05.580Z,32.35
2023-02-15T12:56:41.490Z,32.08
2023-02-15T12:59:23.238Z,31.60
2023-02-15T13:01:57.378Z,30.67
2023-02-15T13:04:31.046Z,31.45
2023-02-15T13:07:04.321Z,31.83
2023-02-15T13:09:42.257Z,30.90
2023-02-15T13:12:24.602Z,30.27
2023-02-15T13:14:58.340Z,30.38
2023-02-15T13:17:31.108Z,30.75
2023-02-15T13:20:04.229Z,30.20
2023-02-15T13:22:43.938Z,30.05
2023-02-15T13:25:22.179Z,30.63
2023-02-15T13:27:58.187Z,30.52
2023-02-15T13:30:33.596Z,31.60
2023-02-15T13:33:07.240Z,30.20
2023-02-15T13:35:53.246Z,30.25
2023-02-15T13:39:28.511Z,31.45
2023-02-15T13:42:08.212Z,33.83
2023-02-15T13:45:11.158Z,33.95
2023-02-15T13:47:58.796Z,34.03
2023-02-15T13:50:55.724Z,34.30
2023-02-15T13:54:00.680Z,34.72
2023-02-15T13:59:32.320Z,33.88
2023-02-15T14:02:32.883Z,34.38
2023-02-15T14:05:32.273Z,34.25
2023-02-15T14:08:14.037Z,34.40
2023-02-15T14:10:55.974Z,35.67
2023-02-15T14:14:14.622Z,35.72
2023-02-15T14:17:06.786Z,37.20
2023-02-15T14:19:47.415Z,38.55
2023-02-15T14:22:29.415Z,37.85
2023-02-15T14:25:19.617Z,37.00
2023-02-15T14:28:00.655Z,36.35
2023-02-15T14:30:34.107Z,36.80
2023-02-15T14:33:10.213Z,38.87
2023-02-15T14:35:43.884Z,36.83
2023-02-15T14:38:54.090Z,37.80
2023-02-15T14:41:31.224Z,36.33
2023-02-15T14:44:11.254Z,37.80
2023-02-15T14:46:52.217Z,35.45
2023-02-15T14:49:26.574Z,36.45
2023-02-15T14:52:13.660Z,36.63
2023-02-15T14:55:06.520Z,36.30
2023-02-15T14:57:37.384Z,36.10
2023-02-15T15:00:39.375Z,35.35
2023-02-15T15:03:24.801Z,36.42
2023-02-15T15:06:00.625Z,36.00
2023-02-15T15:08:39.576Z,35.90
2023-02-15T15:11:51.214Z,35.92
2023-02-15T15:14:44.898Z,36.42
2023-02-15T15:17:19.459Z,34.03
2023-02-15T15:20:14.616Z,36.55
2023-02-15T15:22:46.018Z,35.60
2023-02-15T15:25:46.686Z,36.67
2023-02-15T15:29:02.159Z,33.60
2023-02-15T15:31:50.214Z,33.70
2023-02-15T15:35:03.492Z,34.38
2023-02-15T15:38:08.838Z,33.17
2023-02-15T15:41:26.615Z,34.67
2023-02-15T15:44:58.660Z,34.55
2023-02-15T15:47:56.136Z,33.45
2023-02-15T15:53:07.432Z,33.22
2023-02-15T15:55:39.080Z,34.40
2023-02-15T15:58:13.183Z,34.85
2023-02-15T16:00:49.488Z,35.63
2023-02-15T16:03:25.762Z,37.22
2023-02-15T16:05:56.721Z,36.92
2023-02-15T16:08:36.010Z,38.20
2023-02-15T16:11:20.856Z,39.78
2023-02-15T16:13:56.529Z,38.65
2023-02-15T16:19:02.934Z,37.53
2023-02-15T16:21:44.675Z,37.95
2023-02-15T16:24:53.557Z,37.72
2023-02-15T16:27:43.104Z,38.08
2023-02-15T16:30:44.375Z,36.03
2023-02-15T16:33:16.355Z,39.00
2023-02-15T16:36:00.635Z,38.30
2023-02-15T16:39:09.058Z,39.45
2023-02-15T16:41:47.002Z,39.17
2023-02-15T16:44:21.981Z,38.67
2023-02-15T16:46:56.458Z,40.20
2023-02-15T16:49:32.184Z,38.83
2023-02-15T16:52:04.707Z,38.58
2023-02-15T16:57:46.285Z,41.45
2023-02-15T17:00:24.774Z,41.97
2023-02-15T17:03:02.678Z,40.90
2023-02-15T17:05:36.446Z,41.80
2023-02-15T17:08:21.725Z,40.75
2023-02-15T17:11:18.302Z,42.40
2023-02-15T17:14:29.934Z,41.58
2023-02-15T17:17:31.300Z,40.13
2023-02-15T17:20:01.994Z,40.40
2023-02-15T17:22:32.782Z,42.75
2023-02-15T17:25:18.897Z,42.58
2023-02-15T17:27:55.073Z,40.92
2023-02-15T17:30:33.344Z,41.80
2023-02-15T17:33:12.256Z,41.10
2023-02-15T17:38:44.803Z,43.30
2023-02-15T17:44:15.303Z,40.53
2023-02-15T17:46:46.355Z,45.30
2023-02-15T17:49:35.001Z,45.45
2023-02-15T17:52:08.934Z,43.88
2023-02-15T17:54:55.834Z,43.05
2023-02-15T17:57:29.015Z,44.03
2023-02-15T18:00:16.719Z,42.67
2023-02-15T18:03:07.928Z,41.90
2023-02-15T18:05:54.274Z,44.88
2023-02-15T18:08:48.653Z,41.22
2023-02-15T18:11:37.647Z,42.20
2023-02-15T18:14:09.249Z,43.38
2023-02-15T18:16:43.509Z,43.65
2023-02-15T18:19:19.438Z,44.97
2023-02-15T18:21:49.975Z,44.47
2023-02-15T18:24:27.911Z,45.83
2023-02-15T18:26:57.603Z,46.20
2023-02-15T18:29:27.374Z,45.55
2023-02-15T18:31:58.373Z,46.83
2023-02-15T18:34:32.312Z,46.22
2023-02-15T18:37:03.707Z,44.90
2023-02-15T18:39:41.090Z,45.13
2023-02-15T18:42:29.308Z,44.40
2023-02-15T18:47:47.533Z,44.10
2023-02-15T18:50:18.721Z,43.67
2023-02-15T18:52:51.424Z,44.00
2023-02-15T18:55:27.208Z,42.78
2023-02-15T18:57:58.974Z,43.88
2023-02-15T19:00:33.223Z,45.42
2023-02-15T19:03:05.560Z,42.53
2023-02-15T19:05:37.338Z,42.80
2023-02-15T19:08:09.580Z,43.63
2023-02-15T19:10:43.342Z,42.03
2023-02-15T19:13:30.034Z,42.67
2023-02-15T19:16:00.776Z,45.45
2023-02-15T19:18:35.231Z,43.55
2023-02-15T19:21:08.243Z,45.35
2023-02-15T19:23:37.985Z,45.55
2023-02-15T19:26:08.966Z,45.22
2023-02-15T19:28:39.586Z,48.72
2023-02-15T19:31:14.127Z,46.33
2023-02-15T19:33:44.408Z,45.45
2023-02-15T19:36:24.022Z,44.83
2023-02-15T19:38:56.856Z,48.78
2023-02-15T19:41:34.929Z,45.42
2023-02-15T19:44:04.523Z,45.40
2023-02-15T19:46:38.478Z,48.40
2023-02-15T19:49:12.529Z,46.13
2023-02-15T19:51:42.768Z,45.10
2023-02-15T19:54:32.470Z,44.95
2023-02-15T19:57:03.815Z,44.20
2023-02-15T19:59:37.504Z,46.25
2023-02-15T20:02:09.355Z,45.50
2023-02-15T20:04:38.017Z,44.17
2023-02-15T20:07:27.065Z,46.30
2023-02-15T20:09:59.325Z,45.97
2023-02-15T20:12:30.611Z,43.63
2023-02-15T20:15:02.028Z,44.80
2023-02-15T20:17:31.273Z,45.33
2023-02-15T20:20:00.485Z,44.80
2023-02-15T20:22:29.818Z,45.78
2023-02-15T20:25:00.095Z,46.08
2023-02-15T20:27:30.679Z,47.05
2023-02-15T20:30:07.092Z,45.90
2023-02-15T20:32:36.058Z,45.72
2023-02-15T20:35:05.429Z,45.70
2023-02-15T20:37:35.095Z,43.08
2023-02-15T20:40:17.641Z,45.10
2023-02-15T20:43:05.144Z,43.38
2023-02-15T20:45:35.754Z,42.90
2023-02-15T20:54:01.932Z,40.63
2023-02-15T20:56:36.326Z,40.88
2023-02-15T20:59:32.148Z,41.67
2023-02-15T21:02:22.382Z,41.20
2023-02-15T21:04:53.244Z,40.70
2023-02-15T21:07:27.412Z,40.70
2023-02-15T21:09:56.844Z,39.63
2023-02-15T21:12:34.071Z,40.33
2023-02-15T21:15:26.056Z,40.20
2023-02-15T21:17:57.406Z,39.30
2023-02-15T21:20:28.684Z,41.58
2023-02-15T21:22:58.893Z,41.03
2023-02-15T21:25:35.235Z,41.22
2023-02-15T21:28:05.119Z,41.50
2023-02-15T21:30:37.905Z,41.20
2023-02-15T21:33:07.506Z,40.65
2023-02-15T21:35:40.561Z,41.33
2023-02-15T21:38:17.930Z,41.22
2023-02-15T21:40:47.530Z,41.67
2023-02-15T21:43:35.733Z,38.47
2023-02-15T21:46:33.077Z,41.42
2023-02-15T21:49:02.566Z,38.28
2023-02-15T21:51:51.789Z,41.83
2023-02-15T21:54:25.359Z,40.78
2023-02-15T21:56:54.730Z,39.63
2023-02-15T21:59:28.238Z,39.85
2023-02-15T22:02:00.979Z,39.60
2023-02-15T22:04:35.513Z,40.13
2023-02-15T22:07:06.130Z,40.08
2023-02-15T22:09:35.309Z,40.28
2023-02-15T22:12:05.985Z,40.80
2023-02-15T22:14:44.003Z,41.25
2023-02-15T22:17:21.360Z,39.20
2023-02-15T22:19:54.425Z,41.50
2023-02-15T22:22:23.840Z,39.70
2023-02-15T22:24:56.367Z,41.67
2023-02-15T22:27:27.827Z,41.40
2023-02-15T22:29:58.414Z,42.25
2023-02-15T22:32:30.461Z,41.10
2023-02-15T22:35:00.219Z,41.85
2023-02-15T22:37:29.781Z,42.45
2023-02-15T22:39:59.726Z,40.60
2023-02-15T22:42:30.669Z,43.08
2023-02-15T22:45:01.775Z,40.00
2023-02-15T22:47:34.730Z,40.53
2023-02-15T22:50:06.301Z,41.17
2023-02-15T22:52:35.694Z,41.15
2023-02-15T22:55:06.250Z,38.92
2023-02-15T22:57:37.759Z,41.00
2023-02-15T23:00:10.872Z,41.03
2023-02-15T23:02:42.745Z,41.63
2023-02-15T23:05:22.217Z,42.15
2023-02-15T23:07:53.456Z,42.45
2023-02-15T23:10:27.611Z,41.72
2023-02-15T23:13:16.470Z,43.05
2023-02-15T23:15:49.267Z,42.92
2023-02-15T23:18:24.109Z,41.38
2023-02-15T23:20:56.956Z,41.20
2023-02-15T23:23:35.411Z,42.50
2023-02-15T23:26:06.857Z,43.30
2023-02-15T23:28:40.266Z,44.33
2023-02-15T23:31:20.371Z,43.13
2023-02-15T23:33:52.881Z,44.05
2023-02-15T23:36:32.340Z,42.88
2023-02-15T23:39:22.278Z,45.60
2023-02-15T23:41:51.219Z,45.25
2023-02-15T23:44:21.169Z,44.88
2023-02-15T23:46:51.612Z,43.10
2023-02-15T23:49:22.554Z,43.75
2023-02-15T23:51:54.766Z,44.13
2023-02-15T23:54:26.477Z,43.17
2023-02-15T23:57:01.338Z,45.33
2023-02-15T23:59:40.283Z,42.83
